VTPH/HHQ METAR and TAF weather

Enter ICAO airport designator
Station Type Date Time Source
VTPH METAR 2021/07/28 11:00 UTC NOAA

VTPH 281100Z VRB02KT 9000 -SHRA SCT060 28/25 Q1004 NOSIG


Station Type Date Time Source
VTPH Decoded METAR 2021/07/28 11:00 UTC NOAA

Hua Hin, Thailand (VTPH) 12-35N 099-57E 6M
Jul 28, 2021 - 07:00 AM EDT / 2021.07.28 1100 UTC
Wind: Variable at 2 MPH (2 KT):0
Visibility: 5 mile(s):0
Sky conditions: partly cloudy
Weather: light rain showers
Temperature: 82 F (28 C)
Dew Point: 77 F (25 C)
Relative Humidity: 83%
Pressure (altimeter): 29.65 in. Hg (1004 hPa)
ob: VTPH 281100Z VRB02KT 9000 -SHRA SCT060 28/25 Q1004 NOSIG
cycle: 11

Station Type Date Time Source
VTPH TAF 2021/07/28 18:00 UTC NOAA

TAF VTPH 281700Z 2818/2918 24003KT 9999 FEW020 BKN100
TEMPO 2904/2910 24010G20KT 4000 TSRA FEW016CB SCT018 BKN100

Example: see airport list